sensor_id;sensor_type;location;lat;lon;timestamp;P1;durP1;ratioP1;P2;durP2;ratioP2
31676;SDS011;18385;51.572;6.578;2023-04-25T00:01:13;8.70;;;2.60;;
31676;SDS011;18385;51.572;6.578;2023-04-25T00:03:39;9.10;;;3.30;;
31676;SDS011;18385;51.572;6.578;2023-04-25T00:06:05;11.95;;;3.25;;
31676;SDS011;18385;51.572;6.578;2023-04-25T00:08:31;11.02;;;3.53;;
31676;SDS011;18385;51.572;6.578;2023-04-25T00:10:57;10.70;;;3.47;;
31676;SDS011;18385;51.572;6.578;2023-04-25T00:13:23;10.15;;;3.08;;
31676;SDS011;18385;51.572;6.578;2023-04-25T00:15:50;14.40;;;3.80;;
31676;SDS011;18385;51.572;6.578;2023-04-25T00:18:18;12.60;;;4.32;;
31676;SDS011;18385;51.572;6.578;2023-04-25T00:20:47;11.00;;;3.53;;
31676;SDS011;18385;51.572;6.578;2023-04-25T00:23:13;13.98;;;3.28;;
31676;SDS011;18385;51.572;6.578;2023-04-25T00:25:43;10.68;;;3.50;;
31676;SDS011;18385;51.572;6.578;2023-04-25T00:28:10;11.52;;;3.70;;
31676;SDS011;18385;51.572;6.578;2023-04-25T00:30:36;11.80;;;3.78;;
31676;SDS011;18385;51.572;6.578;2023-04-25T00:33:03;8.65;;;3.42;;
31676;SDS011;18385;51.572;6.578;2023-04-25T00:35:28;13.68;;;3.78;;
31676;SDS011;18385;51.572;6.578;2023-04-25T00:37:54;11.98;;;3.72;;
31676;SDS011;18385;51.572;6.578;2023-04-25T00:40:20;9.18;;;3.20;;
31676;SDS011;18385;51.572;6.578;2023-04-25T00:42:46;11.00;;;2.67;;
31676;SDS011;18385;51.572;6.578;2023-04-25T00:45:12;10.55;;;3.60;;
31676;SDS011;18385;51.572;6.578;2023-04-25T00:47:42;8.27;;;3.35;;
31676;SDS011;18385;51.572;6.578;2023-04-25T00:50:08;15.95;;;3.90;;
31676;SDS011;18385;51.572;6.578;2023-04-25T00:52:34;15.90;;;3.17;;
31676;SDS011;18385;51.572;6.578;2023-04-25T00:55:01;9.55;;;3.25;;
31676;SDS011;18385;51.572;6.578;2023-04-25T00:57:27;9.20;;;3.47;;
31676;SDS011;18385;51.572;6.578;2023-04-25T00:59:53;10.57;;;3.60;;
31676;SDS011;18385;51.572;6.578;2023-04-25T01:02:19;6.75;;;2.45;;
31676;SDS011;18385;51.572;6.578;2023-04-25T01:04:47;11.35;;;3.45;;
31676;SDS011;18385;51.572;6.578;2023-04-25T01:07:13;15.52;;;3.75;;
31676;SDS011;18385;51.572;6.578;2023-04-25T01:09:40;7.60;;;2.63;;
31676;SDS011;18385;51.572;6.578;2023-04-25T01:12:07;9.77;;;3.40;;
31676;SDS011;18385;51.572;6.578;2023-04-25T01:14:33;9.57;;;2.92;;
31676;SDS011;18385;51.572;6.578;2023-04-25T01:16:59;9.27;;;3.25;;
31676;SDS011;18385;51.572;6.578;2023-04-25T01:19:25;15.13;;;3.50;;
31676;SDS011;18385;51.572;6.578;2023-04-25T01:21:51;10.77;;;3.08;;
31676;SDS011;18385;51.572;6.578;2023-04-25T01:24:17;8.50;;;2.35;;
31676;SDS011;18385;51.572;6.578;2023-04-25T01:26:43;11.88;;;3.55;;
31676;SDS011;18385;51.572;6.578;2023-04-25T01:29:15;11.38;;;3.30;;
31676;SDS011;18385;51.572;6.578;2023-04-25T01:31:42;9.13;;;2.65;;
31676;SDS011;18385;51.572;6.578;2023-04-25T01:34:09;8.23;;;3.10;;
31676;SDS011;18385;51.572;6.578;2023-04-25T01:36:35;6.43;;;3.22;;
31676;SDS011;18385;51.572;6.578;2023-04-25T01:39:01;10.15;;;3.05;;
31676;SDS011;18385;51.572;6.578;2023-04-25T01:41:27;12.10;;;3.00;;
31676;SDS011;18385;51.572;6.578;2023-04-25T01:43:53;10.70;;;3.13;;
31676;SDS011;18385;51.572;6.578;2023-04-25T01:46:19;10.38;;;3.10;;
31676;SDS011;18385;51.572;6.578;2023-04-25T01:48:44;9.38;;;3.53;;
31676;SDS011;18385;51.572;6.578;2023-04-25T01:51:10;15.57;;;3.25;;
31676;SDS011;18385;51.572;6.578;2023-04-25T01:53:37;8.55;;;2.67;;
31676;SDS011;18385;51.572;6.578;2023-04-25T01:56:04;8.45;;;3.00;;
31676;SDS011;18385;51.572;6.578;2023-04-25T02:01:01;10.40;;;3.05;;
31676;SDS011;18385;51.572;6.578;2023-04-25T02:03:34;11.30;;;2.45;;
31676;SDS011;18385;51.572;6.578;2023-04-25T02:06:02;8.95;;;2.72;;
31676;SDS011;18385;51.572;6.578;2023-04-25T02:08:30;10.68;;;2.75;;
31676;SDS011;18385;51.572;6.578;2023-04-25T02:10:56;11.95;;;2.78;;
31676;SDS011;18385;51.572;6.578;2023-04-25T02:13:28;11.57;;;3.47;;
31676;SDS011;18385;51.572;6.578;2023-04-25T02:16:12;6.78;;;2.67;;
31676;SDS011;18385;51.572;6.578;2023-04-25T02:18:38;11.32;;;3.30;;
31676;SDS011;18385;51.572;6.578;2023-04-25T02:21:05;8.23;;;3.13;;
31676;SDS011;18385;51.572;6.578;2023-04-25T02:23:31;9.55;;;3.03;;
31676;SDS011;18385;51.572;6.578;2023-04-25T02:25:59;12.88;;;3.00;;
31676;SDS011;18385;51.572;6.578;2023-04-25T02:28:24;9.25;;;2.53;;
31676;SDS011;18385;51.572;6.578;2023-04-25T02:30:51;9.13;;;2.50;;
31676;SDS011;18385;51.572;6.578;2023-04-25T02:33:17;14.30;;;3.17;;
31676;SDS011;18385;51.572;6.578;2023-04-25T02:35:43;8.48;;;2.33;;
31676;SDS011;18385;51.572;6.578;2023-04-25T02:38:09;8.77;;;2.53;;
31676;SDS011;18385;51.572;6.578;2023-04-25T02:40:35;12.85;;;3.28;;
31676;SDS011;18385;51.572;6.578;2023-04-25T02:43:00;13.60;;;3.30;;
31676;SDS011;18385;51.572;6.578;2023-04-25T02:45:26;10.68;;;2.80;;
31676;SDS011;18385;51.572;6.578;2023-04-25T02:47:52;12.73;;;3.00;;
31676;SDS011;18385;51.572;6.578;2023-04-25T02:50:18;15.27;;;4.47;;
31676;SDS011;18385;51.572;6.578;2023-04-25T02:52:44;9.48;;;3.22;;
31676;SDS011;18385;51.572;6.578;2023-04-25T02:55:17;10.95;;;3.97;;
31676;SDS011;18385;51.572;6.578;2023-04-25T02:57:44;15.90;;;3.00;;
31676;SDS011;18385;51.572;6.578;2023-04-25T03:00:13;6.20;;;2.45;;
31676;SDS011;18385;51.572;6.578;2023-04-25T03:02:39;18.83;;;4.25;;
31676;SDS011;18385;51.572;6.578;2023-04-25T03:05:05;14.00;;;3.38;;
31676;SDS011;18385;51.572;6.578;2023-04-25T03:07:31;9.80;;;2.95;;
31676;SDS011;18385;51.572;6.578;2023-04-25T03:09:57;12.27;;;3.60;;
31676;SDS011;18385;51.572;6.578;2023-04-25T03:12:22;8.82;;;2.80;;
31676;SDS011;18385;51.572;6.578;2023-04-25T03:14:49;8.52;;;2.95;;
31676;SDS011;18385;51.572;6.578;2023-04-25T03:17:14;9.68;;;3.72;;
31676;SDS011;18385;51.572;6.578;2023-04-25T03:19:41;10.68;;;3.63;;
31676;SDS011;18385;51.572;6.578;2023-04-25T03:22:06;11.40;;;2.95;;
31676;SDS011;18385;51.572;6.578;2023-04-25T03:24:32;11.93;;;3.47;;
31676;SDS011;18385;51.572;6.578;2023-04-25T03:26:58;17.00;;;3.10;;
31676;SDS011;18385;51.572;6.578;2023-04-25T03:29:23;11.25;;;2.83;;
31676;SDS011;18385;51.572;6.578;2023-04-25T03:31:51;11.35;;;4.03;;
31676;SDS011;18385;51.572;6.578;2023-04-25T03:34:18;12.82;;;3.70;;
31676;SDS011;18385;51.572;6.578;2023-04-25T03:36:45;10.45;;;2.35;;
31676;SDS011;18385;51.572;6.578;2023-04-25T03:39:11;13.90;;;3.47;;
31676;SDS011;18385;51.572;6.578;2023-04-25T03:41:40;11.68;;;3.38;;
31676;SDS011;18385;51.572;6.578;2023-04-25T03:44:11;11.45;;;3.45;;
31676;SDS011;18385;51.572;6.578;2023-04-25T03:46:37;13.20;;;3.17;;
31676;SDS011;18385;51.572;6.578;2023-04-25T03:49:02;20.30;;;4.15;;
31676;SDS011;18385;51.572;6.578;2023-04-25T03:51:48;9.95;;;4.10;;
31676;SDS011;18385;51.572;6.578;2023-04-25T03:54:14;15.32;;;4.00;;
31676;SDS011;18385;51.572;6.578;2023-04-25T03:57:15;10.30;;;2.95;;
31676;SDS011;18385;51.572;6.578;2023-04-25T03:59:42;17.63;;;5.22;;
31676;SDS011;18385;51.572;6.578;2023-04-25T04:02:10;16.97;;;3.87;;
31676;SDS011;18385;51.572;6.578;2023-04-25T04:04:37;10.70;;;3.30;;
31676;SDS011;18385;51.572;6.578;2023-04-25T04:07:02;15.68;;;3.88;;
31676;SDS011;18385;51.572;6.578;2023-04-25T04:09:32;8.40;;;2.90;;
31676;SDS011;18385;51.572;6.578;2023-04-25T04:12:02;18.17;;;3.67;;
31676;SDS011;18385;51.572;6.578;2023-04-25T04:14:30;11.13;;;3.45;;
31676;SDS011;18385;51.572;6.578;2023-04-25T04:16:55;14.43;;;3.20;;
31676;SDS011;18385;51.572;6.578;2023-04-25T04:19:22;8.13;;;3.42;;
31676;SDS011;18385;51.572;6.578;2023-04-25T04:22:08;21.10;;;3.97;;
31676;SDS011;18385;51.572;6.578;2023-04-25T04:24:34;12.20;;;3.83;;
31676;SDS011;18385;51.572;6.578;2023-04-25T04:27:03;14.45;;;3.60;;
31676;SDS011;18385;51.572;6.578;2023-04-25T04:29:38;20.00;;;4.63;;
31676;SDS011;18385;51.572;6.578;2023-04-25T04:32:13;12.23;;;4.03;;
31676;SDS011;18385;51.572;6.578;2023-04-25T04:34:39;15.88;;;4.22;;
31676;SDS011;18385;51.572;6.578;2023-04-25T04:37:06;11.98;;;3.17;;
31676;SDS011;18385;51.572;6.578;2023-04-25T04:39:32;17.73;;;4.60;;
31676;SDS011;18385;51.572;6.578;2023-04-25T04:42:12;16.55;;;3.47;;
31676;SDS011;18385;51.572;6.578;2023-04-25T04:45:04;16.75;;;3.53;;
31676;SDS011;18385;51.572;6.578;2023-04-25T04:47:44;14.68;;;3.88;;
31676;SDS011;18385;51.572;6.578;2023-04-25T04:50:32;13.55;;;3.63;;
31676;SDS011;18385;51.572;6.578;2023-04-25T04:53:15;14.02;;;3.88;;
31676;SDS011;18385;51.572;6.578;2023-04-25T04:56:07;15.75;;;3.92;;
31676;SDS011;18385;51.572;6.578;2023-04-25T04:58:45;10.20;;;3.00;;
31676;SDS011;18385;51.572;6.578;2023-04-25T05:01:32;12.90;;;3.60;;
31676;SDS011;18385;51.572;6.578;2023-04-25T05:04:19;8.10;;;3.00;;
31676;SDS011;18385;51.572;6.578;2023-04-25T05:07:08;11.50;;;3.63;;
31676;SDS011;18385;51.572;6.578;2023-04-25T05:09:45;11.65;;;3.78;;
31676;SDS011;18385;51.572;6.578;2023-04-25T05:12:29;14.80;;;3.88;;
31676;SDS011;18385;51.572;6.578;2023-04-25T05:15:15;17.02;;;3.78;;
31676;SDS011;18385;51.572;6.578;2023-04-25T05:18:07;10.23;;;3.08;;
31676;SDS011;18385;51.572;6.578;2023-04-25T05:21:03;9.85;;;3.05;;
31676;SDS011;18385;51.572;6.578;2023-04-25T05:23:55;12.73;;;3.65;;
31676;SDS011;18385;51.572;6.578;2023-04-25T05:26:44;11.38;;;2.90;;
31676;SDS011;18385;51.572;6.578;2023-04-25T05:29:33;13.23;;;3.60;;
31676;SDS011;18385;51.572;6.578;2023-04-25T05:32:05;13.45;;;4.20;;
31676;SDS011;18385;51.572;6.578;2023-04-25T05:34:31;14.80;;;3.60;;
31676;SDS011;18385;51.572;6.578;2023-04-25T05:37:03;13.85;;;4.22;;
31676;SDS011;18385;51.572;6.578;2023-04-25T05:39:30;10.73;;;3.03;;
31676;SDS011;18385;51.572;6.578;2023-04-25T05:42:09;12.65;;;2.65;;
31676;SDS011;18385;51.572;6.578;2023-04-25T05:44:58;11.33;;;3.20;;
31676;SDS011;18385;51.572;6.578;2023-04-25T05:47:52;11.20;;;2.60;;
31676;SDS011;18385;51.572;6.578;2023-04-25T05:50:41;7.72;;;3.17;;
31676;SDS011;18385;51.572;6.578;2023-04-25T05:53:42;11.65;;;3.80;;
31676;SDS011;18385;51.572;6.578;2023-04-25T05:56:08;10.77;;;3.25;;
31676;SDS011;18385;51.572;6.578;2023-04-25T05:58:34;14.15;;;3.72;;
31676;SDS011;18385;51.572;6.578;2023-04-25T06:00:59;17.58;;;4.68;;
31676;SDS011;18385;51.572;6.578;2023-04-25T06:03:25;9.27;;;3.08;;
31676;SDS011;18385;51.572;6.578;2023-04-25T06:05:51;12.55;;;3.63;;
31676;SDS011;18385;51.572;6.578;2023-04-25T06:08:18;15.43;;;4.03;;
31676;SDS011;18385;51.572;6.578;2023-04-25T06:10:44;11.82;;;2.90;;
31676;SDS011;18385;51.572;6.578;2023-04-25T06:13:09;15.10;;;3.55;;
31676;SDS011;18385;51.572;6.578;2023-04-25T06:15:36;10.02;;;2.78;;
31676;SDS011;18385;51.572;6.578;2023-04-25T06:18:01;10.80;;;3.50;;
31676;SDS011;18385;51.572;6.578;2023-04-25T06:20:27;10.73;;;3.35;;
31676;SDS011;18385;51.572;6.578;2023-04-25T06:22:56;16.70;;;3.58;;
31676;SDS011;18385;51.572;6.578;2023-04-25T06:25:40;13.70;;;2.80;;
31676;SDS011;18385;51.572;6.578;2023-04-25T06:28:06;17.23;;;3.00;;
31676;SDS011;18385;51.572;6.578;2023-04-25T06:30:33;11.20;;;2.85;;
31676;SDS011;18385;51.572;6.578;2023-04-25T06:33:04;16.27;;;2.92;;
31676;SDS011;18385;51.572;6.578;2023-04-25T06:35:31;11.23;;;2.80;;
31676;SDS011;18385;51.572;6.578;2023-04-25T06:37:57;14.43;;;2.72;;
31676;SDS011;18385;51.572;6.578;2023-04-25T06:40:24;8.25;;;2.28;;
31676;SDS011;18385;51.572;6.578;2023-04-25T06:42:50;16.77;;;3.97;;
31676;SDS011;18385;51.572;6.578;2023-04-25T06:45:34;17.00;;;2.85;;
31676;SDS011;18385;51.572;6.578;2023-04-25T06:48:00;18.25;;;4.00;;
31676;SDS011;18385;51.572;6.578;2023-04-25T06:50:26;11.35;;;3.80;;
31676;SDS011;18385;51.572;6.578;2023-04-25T06:52:52;9.80;;;2.33;;
31676;SDS011;18385;51.572;6.578;2023-04-25T06:55:19;10.60;;;3.30;;
31676;SDS011;18385;51.572;6.578;2023-04-25T06:58:14;13.98;;;2.75;;
31676;SDS011;18385;51.572;6.578;2023-04-25T07:00:52;17.90;;;3.38;;
31676;SDS011;18385;51.572;6.578;2023-04-25T07:03:20;13.30;;;3.15;;
31676;SDS011;18385;51.572;6.578;2023-04-25T07:05:46;10.77;;;3.45;;
31676;SDS011;18385;51.572;6.578;2023-04-25T07:08:12;11.55;;;2.95;;
31676;SDS011;18385;51.572;6.578;2023-04-25T07:10:37;8.70;;;2.33;;
31676;SDS011;18385;51.572;6.578;2023-04-25T07:13:04;9.35;;;2.38;;
31676;SDS011;18385;51.572;6.578;2023-04-25T07:15:29;9.80;;;2.13;;
31676;SDS011;18385;51.572;6.578;2023-04-25T07:17:56;9.85;;;2.45;;
31676;SDS011;18385;51.572;6.578;2023-04-25T07:20:22;11.85;;;2.10;;
31676;SDS011;18385;51.572;6.578;2023-04-25T07:22:48;8.98;;;2.58;;
31676;SDS011;18385;51.572;6.578;2023-04-25T07:25:15;7.68;;;2.00;;
31676;SDS011;18385;51.572;6.578;2023-04-25T07:27:41;11.15;;;2.60;;
31676;SDS011;18385;51.572;6.578;2023-04-25T07:30:12;9.68;;;2.15;;
31676;SDS011;18385;51.572;6.578;2023-04-25T07:32:38;10.15;;;2.15;;
31676;SDS011;18385;51.572;6.578;2023-04-25T07:35:04;8.32;;;1.90;;
31676;SDS011;18385;51.572;6.578;2023-04-25T07:37:32;4.65;;;1.70;;
31676;SDS011;18385;51.572;6.578;2023-04-25T07:40:07;6.75;;;1.40;;
31676;SDS011;18385;51.572;6.578;2023-04-25T07:42:35;6.85;;;1.83;;
31676;SDS011;18385;51.572;6.578;2023-04-25T07:45:02;11.32;;;1.70;;
31676;SDS011;18385;51.572;6.578;2023-04-25T07:47:28;8.55;;;1.63;;
31676;SDS011;18385;51.572;6.578;2023-04-25T07:49:54;9.57;;;1.70;;
31676;SDS011;18385;51.572;6.578;2023-04-25T07:52:21;8.88;;;1.88;;
31676;SDS011;18385;51.572;6.578;2023-04-25T07:54:52;9.82;;;1.67;;
31676;SDS011;18385;51.572;6.578;2023-04-25T07:57:23;6.90;;;2.10;;
31676;SDS011;18385;51.572;6.578;2023-04-25T07:59:51;10.18;;;2.22;;
31676;SDS011;18385;51.572;6.578;2023-04-25T08:02:17;8.32;;;2.13;;
31676;SDS011;18385;51.572;6.578;2023-04-25T08:04:44;12.07;;;1.92;;
31676;SDS011;18385;51.572;6.578;2023-04-25T08:07:11;9.13;;;2.08;;
31676;SDS011;18385;51.572;6.578;2023-04-25T08:09:46;11.05;;;1.63;;
31676;SDS011;18385;51.572;6.578;2023-04-25T08:12:21;13.32;;;2.00;;
31676;SDS011;18385;51.572;6.578;2023-04-25T08:14:46;10.27;;;2.55;;
31676;SDS011;18385;51.572;6.578;2023-04-25T08:17:12;11.82;;;1.70;;
31676;SDS011;18385;51.572;6.578;2023-04-25T08:19:40;6.35;;;1.33;;
31676;SDS011;18385;51.572;6.578;2023-04-25T08:22:10;7.10;;;1.70;;
31676;SDS011;18385;51.572;6.578;2023-04-25T08:24:46;5.82;;;0.95;;
31676;SDS011;18385;51.572;6.578;2023-04-25T08:27:12;10.65;;;1.38;;
31676;SDS011;18385;51.572;6.578;2023-04-25T08:29:39;7.47;;;1.33;;
31676;SDS011;18385;51.572;6.578;2023-04-25T08:32:04;9.10;;;2.65;;
31676;SDS011;18385;51.572;6.578;2023-04-25T08:34:33;8.23;;;1.08;;
31676;SDS011;18385;51.572;6.578;2023-04-25T08:37:02;7.55;;;1.35;;
31676;SDS011;18385;51.572;6.578;2023-04-25T08:39:45;6.57;;;1.33;;
31676;SDS011;18385;51.572;6.578;2023-04-25T08:42:19;9.60;;;1.40;;
31676;SDS011;18385;51.572;6.578;2023-04-25T08:44:47;5.55;;;1.17;;
31676;SDS011;18385;51.572;6.578;2023-04-25T08:47:14;9.35;;;1.23;;
31676;SDS011;18385;51.572;6.578;2023-04-25T08:49:46;7.00;;;1.25;;
31676;SDS011;18385;51.572;6.578;2023-04-25T08:52:13;5.03;;;0.95;;
31676;SDS011;18385;51.572;6.578;2023-04-25T08:54:43;9.85;;;1.25;;
31676;SDS011;18385;51.572;6.578;2023-04-25T08:57:15;10.88;;;1.17;;
31676;SDS011;18385;51.572;6.578;2023-04-25T08:59:44;6.82;;;0.93;;
31676;SDS011;18385;51.572;6.578;2023-04-25T09:02:11;7.35;;;0.98;;
31676;SDS011;18385;51.572;6.578;2023-04-25T09:04:42;9.38;;;2.05;;
31676;SDS011;18385;51.572;6.578;2023-04-25T09:07:09;4.60;;;0.77;;
31676;SDS011;18385;51.572;6.578;2023-04-25T09:09:34;11.07;;;1.15;;
31676;SDS011;18385;51.572;6.578;2023-04-25T09:12:01;4.75;;;0.73;;
31676;SDS011;18385;51.572;6.578;2023-04-25T09:14:27;3.63;;;0.77;;
31676;SDS011;18385;51.572;6.578;2023-04-25T09:17:06;5.63;;;0.80;;
31676;SDS011;18385;51.572;6.578;2023-04-25T09:19:47;3.53;;;1.10;;
31676;SDS011;18385;51.572;6.578;2023-04-25T09:22:24;2.75;;;0.80;;
31676;SDS011;18385;51.572;6.578;2023-04-25T09:24:50;8.30;;;1.30;;
31676;SDS011;18385;51.572;6.578;2023-04-25T09:27:18;6.93;;;0.80;;
31676;SDS011;18385;51.572;6.578;2023-04-25T09:29:47;8.38;;;0.70;;
31676;SDS011;18385;51.572;6.578;2023-04-25T09:40:08;5.22;;;1.05;;
31676;SDS011;18385;51.572;6.578;2023-04-25T09:42:48;4.80;;;1.10;;
31676;SDS011;18385;51.572;6.578;2023-04-25T09:45:14;2.40;;;0.57;;
31676;SDS011;18385;51.572;6.578;2023-04-25T09:47:41;6.15;;;1.05;;
31676;SDS011;18385;51.572;6.578;2023-04-25T09:50:13;6.33;;;1.10;;
31676;SDS011;18385;51.572;6.578;2023-04-25T09:52:42;3.83;;;1.35;;
31676;SDS011;18385;51.572;6.578;2023-04-25T09:55:14;3.15;;;0.60;;
31676;SDS011;18385;51.572;6.578;2023-04-25T09:57:42;3.03;;;1.13;;
31676;SDS011;18385;51.572;6.578;2023-04-25T10:00:10;5.40;;;0.90;;
31676;SDS011;18385;51.572;6.578;2023-04-25T10:02:42;6.35;;;1.00;;
31676;SDS011;18385;51.572;6.578;2023-04-25T10:05:21;6.18;;;1.05;;
31676;SDS011;18385;51.572;6.578;2023-04-25T10:07:47;4.50;;;0.75;;
31676;SDS011;18385;51.572;6.578;2023-04-25T10:10:15;5.72;;;0.88;;
31676;SDS011;18385;51.572;6.578;2023-04-25T10:12:41;6.00;;;1.00;;
31676;SDS011;18385;51.572;6.578;2023-04-25T10:15:09;5.38;;;0.90;;
31676;SDS011;18385;51.572;6.578;2023-04-25T10:17:36;7.32;;;1.15;;
31676;SDS011;18385;51.572;6.578;2023-04-25T10:20:02;2.85;;;0.70;;
31676;SDS011;18385;51.572;6.578;2023-04-25T10:22:34;6.63;;;0.80;;
31676;SDS011;18385;51.572;6.578;2023-04-25T10:25:02;4.40;;;0.50;;
31676;SDS011;18385;51.572;6.578;2023-04-25T10:27:29;3.63;;;0.80;;
31676;SDS011;18385;51.572;6.578;2023-04-25T10:30:06;2.83;;;0.57;;
31676;SDS011;18385;51.572;6.578;2023-04-25T10:32:36;5.03;;;0.60;;
31676;SDS011;18385;51.572;6.578;2023-04-25T10:40:30;4.75;;;0.68;;
31676;SDS011;18385;51.572;6.578;2023-04-25T10:48:44;4.60;;;0.88;;
31676;SDS011;18385;51.572;6.578;2023-04-25T10:51:23;4.68;;;0.88;;
31676;SDS011;18385;51.572;6.578;2023-04-25T10:56:21;5.00;;;0.60;;
31676;SDS011;18385;51.572;6.578;2023-04-25T10:59:11;5.75;;;0.73;;
31676;SDS011;18385;51.572;6.578;2023-04-25T11:01:38;2.30;;;0.68;;
31676;SDS011;18385;51.572;6.578;2023-04-25T11:04:04;5.22;;;1.67;;
31676;SDS011;18385;51.572;6.578;2023-04-25T11:06:36;7.30;;;1.35;;
31676;SDS011;18385;51.572;6.578;2023-04-25T11:09:19;4.28;;;0.80;;
31676;SDS011;18385;51.572;6.578;2023-04-25T11:14:21;7.03;;;0.80;;
31676;SDS011;18385;51.572;6.578;2023-04-25T11:16:47;5.63;;;0.95;;
31676;SDS011;18385;51.572;6.578;2023-04-25T11:19:19;10.85;;;1.10;;
31676;SDS011;18385;51.572;6.578;2023-04-25T11:21:45;4.68;;;1.30;;
31676;SDS011;18385;51.572;6.578;2023-04-25T11:24:11;6.05;;;1.20;;
31676;SDS011;18385;51.572;6.578;2023-04-25T11:26:37;9.25;;;1.85;;
31676;SDS011;18385;51.572;6.578;2023-04-25T11:29:02;4.68;;;0.80;;
31676;SDS011;18385;51.572;6.578;2023-04-25T11:31:29;6.70;;;1.10;;
31676;SDS011;18385;51.572;6.578;2023-04-25T11:33:58;7.30;;;1.17;;
31676;SDS011;18385;51.572;6.578;2023-04-25T11:36:24;5.45;;;1.25;;
31676;SDS011;18385;51.572;6.578;2023-04-25T11:38:51;2.90;;;0.80;;
31676;SDS011;18385;51.572;6.578;2023-04-25T11:41:18;3.75;;;0.90;;
31676;SDS011;18385;51.572;6.578;2023-04-25T11:43:45;4.85;;;0.93;;
31676;SDS011;18385;51.572;6.578;2023-04-25T11:46:11;3.85;;;0.80;;
31676;SDS011;18385;51.572;6.578;2023-04-25T11:48:37;2.70;;;0.70;;
31676;SDS011;18385;51.572;6.578;2023-04-25T11:51:04;3.50;;;0.77;;
31676;SDS011;18385;51.572;6.578;2023-04-25T11:53:29;5.32;;;0.70;;
31676;SDS011;18385;51.572;6.578;2023-04-25T11:55:55;3.05;;;0.88;;
31676;SDS011;18385;51.572;6.578;2023-04-25T11:58:21;7.88;;;0.73;;
31676;SDS011;18385;51.572;6.578;2023-04-25T12:00:47;2.83;;;0.70;;
31676;SDS011;18385;51.572;6.578;2023-04-25T12:03:12;3.63;;;1.02;;
31676;SDS011;18385;51.572;6.578;2023-04-25T12:05:38;3.92;;;0.50;;
31676;SDS011;18385;51.572;6.578;2023-04-25T12:10:37;3.33;;;0.60;;
31676;SDS011;18385;51.572;6.578;2023-04-25T12:13:17;4.10;;;0.45;;
31676;SDS011;18385;51.572;6.578;2023-04-25T12:15:45;2.95;;;0.38;;
31676;SDS011;18385;51.572;6.578;2023-04-25T12:18:11;1.42;;;0.38;;
31676;SDS011;18385;51.572;6.578;2023-04-25T12:20:36;3.97;;;0.55;;
31676;SDS011;18385;51.572;6.578;2023-04-25T12:23:05;2.90;;;0.60;;
31676;SDS011;18385;51.572;6.578;2023-04-25T12:25:43;2.60;;;0.40;;
31676;SDS011;18385;51.572;6.578;2023-04-25T12:30:58;5.72;;;0.70;;
31676;SDS011;18385;51.572;6.578;2023-04-25T12:33:24;4.47;;;1.05;;
31676;SDS011;18385;51.572;6.578;2023-04-25T12:35:51;6.18;;;0.75;;
31676;SDS011;18385;51.572;6.578;2023-04-25T12:40:50;4.07;;;0.70;;
31676;SDS011;18385;51.572;6.578;2023-04-25T12:43:16;3.83;;;0.90;;
31676;SDS011;18385;51.572;6.578;2023-04-25T12:45:43;7.07;;;0.70;;
31676;SDS011;18385;51.572;6.578;2023-04-25T12:48:09;7.03;;;0.90;;
31676;SDS011;18385;51.572;6.578;2023-04-25T12:50:35;2.80;;;0.70;;
31676;SDS011;18385;51.572;6.578;2023-04-25T12:53:01;5.45;;;0.80;;
31676;SDS011;18385;51.572;6.578;2023-04-25T12:55:26;4.88;;;0.73;;
31676;SDS011;18385;51.572;6.578;2023-04-25T12:57:52;3.70;;;0.60;;
31676;SDS011;18385;51.572;6.578;2023-04-25T13:00:18;2.70;;;0.80;;
31676;SDS011;18385;51.572;6.578;2023-04-25T13:02:45;3.60;;;0.55;;
31676;SDS011;18385;51.572;6.578;2023-04-25T13:05:12;6.80;;;0.90;;
31676;SDS011;18385;51.572;6.578;2023-04-25T13:07:38;5.60;;;0.98;;
31676;SDS011;18385;51.572;6.578;2023-04-25T13:10:04;3.78;;;0.70;;
31676;SDS011;18385;51.572;6.578;2023-04-25T13:12:31;7.40;;;1.50;;
31676;SDS011;18385;51.572;6.578;2023-04-25T13:14:56;2.38;;;0.40;;
31676;SDS011;18385;51.572;6.578;2023-04-25T13:17:22;3.60;;;0.50;;
31676;SDS011;18385;51.572;6.578;2023-04-25T13:19:47;1.40;;;0.40;;
31676;SDS011;18385;51.572;6.578;2023-04-25T13:22:13;5.07;;;0.50;;
31676;SDS011;18385;51.572;6.578;2023-04-25T13:24:40;2.47;;;0.60;;
31676;SDS011;18385;51.572;6.578;2023-04-25T13:27:06;3.22;;;0.80;;
31676;SDS011;18385;51.572;6.578;2023-04-25T13:29:31;3.17;;;0.60;;
31676;SDS011;18385;51.572;6.578;2023-04-25T13:31:59;2.08;;;0.43;;
31676;SDS011;18385;51.572;6.578;2023-04-25T13:34:25;2.15;;;0.38;;
31676;SDS011;18385;51.572;6.578;2023-04-25T13:36:51;1.55;;;0.47;;
31676;SDS011;18385;51.572;6.578;2023-04-25T13:39:17;2.78;;;0.70;;
31676;SDS011;18385;51.572;6.578;2023-04-25T13:41:42;4.45;;;0.38;;
31676;SDS011;18385;51.572;6.578;2023-04-25T13:44:08;4.03;;;0.77;;
31676;SDS011;18385;51.572;6.578;2023-04-25T13:46:35;2.00;;;0.50;;
31676;SDS011;18385;51.572;6.578;2023-04-25T13:49:02;3.00;;;0.40;;
31676;SDS011;18385;51.572;6.578;2023-04-25T13:51:28;4.00;;;0.43;;
31676;SDS011;18385;51.572;6.578;2023-04-25T13:53:55;3.33;;;0.57;;
31676;SDS011;18385;51.572;6.578;2023-04-25T13:56:21;6.68;;;0.60;;
31676;SDS011;18385;51.572;6.578;2023-04-25T13:58:48;3.42;;;0.52;;
31676;SDS011;18385;51.572;6.578;2023-04-25T14:01:17;2.55;;;0.50;;
31676;SDS011;18385;51.572;6.578;2023-04-25T14:03:43;4.80;;;0.80;;
31676;SDS011;18385;51.572;6.578;2023-04-25T14:06:10;4.43;;;0.70;;
31676;SDS011;18385;51.572;6.578;2023-04-25T14:08:37;6.75;;;0.77;;
31676;SDS011;18385;51.572;6.578;2023-04-25T14:11:03;4.65;;;0.68;;
31676;SDS011;18385;51.572;6.578;2023-04-25T14:13:29;5.18;;;0.77;;
31676;SDS011;18385;51.572;6.578;2023-04-25T14:15:54;4.55;;;0.77;;
31676;SDS011;18385;51.572;6.578;2023-04-25T14:18:20;5.85;;;0.55;;
31676;SDS011;18385;51.572;6.578;2023-04-25T14:20:46;2.50;;;0.70;;
31676;SDS011;18385;51.572;6.578;2023-04-25T14:23:12;2.42;;;0.77;;
31676;SDS011;18385;51.572;6.578;2023-04-25T14:25:38;3.50;;;0.47;;
31676;SDS011;18385;51.572;6.578;2023-04-25T14:28:05;1.92;;;0.30;;
31676;SDS011;18385;51.572;6.578;2023-04-25T14:30:31;6.25;;;0.70;;
31676;SDS011;18385;51.572;6.578;2023-04-25T14:32:57;3.78;;;0.50;;
31676;SDS011;18385;51.572;6.578;2023-04-25T14:35:22;6.32;;;0.70;;
31676;SDS011;18385;51.572;6.578;2023-04-25T14:37:48;6.38;;;1.25;;
31676;SDS011;18385;51.572;6.578;2023-04-25T14:40:14;3.95;;;0.63;;
31676;SDS011;18385;51.572;6.578;2023-04-25T14:42:40;2.85;;;0.60;;
31676;SDS011;18385;51.572;6.578;2023-04-25T14:45:06;1.50;;;0.60;;
31676;SDS011;18385;51.572;6.578;2023-04-25T14:47:34;3.35;;;0.50;;
31676;SDS011;18385;51.572;6.578;2023-04-25T14:50:01;6.85;;;1.10;;
31676;SDS011;18385;51.572;6.578;2023-04-25T14:52:27;4.32;;;0.85;;
31676;SDS011;18385;51.572;6.578;2023-04-25T14:54:52;3.00;;;0.60;;
31676;SDS011;18385;51.572;6.578;2023-04-25T14:57:18;3.20;;;0.65;;
31676;SDS011;18385;51.572;6.578;2023-04-25T14:59:44;3.05;;;0.57;;
31676;SDS011;18385;51.572;6.578;2023-04-25T15:02:10;1.75;;;0.40;;
31676;SDS011;18385;51.572;6.578;2023-04-25T15:04:36;1.55;;;0.55;;
31676;SDS011;18385;51.572;6.578;2023-04-25T15:07:02;2.70;;;0.40;;
31676;SDS011;18385;51.572;6.578;2023-04-25T15:09:29;2.97;;;0.40;;
31676;SDS011;18385;51.572;6.578;2023-04-25T15:11:55;2.72;;;0.60;;
31676;SDS011;18385;51.572;6.578;2023-04-25T15:14:21;3.28;;;0.75;;
31676;SDS011;18385;51.572;6.578;2023-04-25T15:16:47;4.03;;;0.80;;
31676;SDS011;18385;51.572;6.578;2023-04-25T15:19:12;4.50;;;0.47;;
31676;SDS011;18385;51.572;6.578;2023-04-25T15:21:38;4.78;;;0.50;;
31676;SDS011;18385;51.572;6.578;2023-04-25T15:24:04;3.40;;;0.73;;
31676;SDS011;18385;51.572;6.578;2023-04-25T15:26:30;5.57;;;0.77;;
31676;SDS011;18385;51.572;6.578;2023-04-25T15:28:55;6.95;;;0.80;;